Apore, Brazil
Current Conditions -  °F | °C
As of 4:00 PM on Monday 26 Jan 2015 (Local Time) from SBCG Reporting Station
Thunderstorm Thunderstorm  
Wind Chill: 79°   Ceiling: 3500
Heat Index: 81°   Visibility: 6mi
Dew Point: 68°   Wind: 17mph
Humidity: 69%   Direction: 340°NNW
Pressure: 29.88"   Gusts: NA
Location:  18.96°S, 51.94°W
Report Text: SBCG 261800Z 34015KT 9999 TS VCSH BKN035 FEW040CB 26/20 Q1012
Loading
Personal Weather Stations






























Interactive Weather Map New forecast layout! Learn more

10-Day Weather Forecast

Advertisements
Track Severe Weather on mobile